< Typhoon 195527 1955 Season Typhoon 195601 >
Typhoon 195528 (RUTH)
General InformationTrack Information on Google Maps || Disaster Info.ResourceGoogle EarthGE AnimationAtom FeedGeoJSON
Detalied Best Track (Time Zone = UTC)
Year Month Day Hour Lat. Long. Pressure (hPa) Wind (kt) Class Image Chart
1955 12 12 00 6.2 142.3 1000 0 2 -- Chart
1955 12 12 06 7.0 141.0 1000 0 9 -- Chart
1955 12 12 12 7.9 139.4 998 0 9 -- Chart
1955 12 12 18 8.7 137.7 998 0 9 -- Chart
1955 12 13 00 9.3 136.2 998 0 9 -- Chart
1955 12 13 06 9.8 134.8 990 0 9 -- Chart
1955 12 13 12 10.1 133.9 990 0 9 -- Chart
1955 12 13 18 10.3 133.1 990 0 9 -- Chart
1955 12 14 00 10.7 132.0 985 0 9 -- Chart
1955 12 14 06 11.2 131.2 975 0 9 -- Chart
1955 12 14 12 11.8 130.1 970 0 9 -- Chart
1955 12 14 18 12.8 129.1 960 0 9 -- Chart
1955 12 15 00 13.9 128.4 950 0 9 -- Chart
1955 12 15 06 15.0 129.0 945 0 9 -- Chart
1955 12 15 12 15.8 129.4 940 0 9 -- Chart
1955 12 15 18 16.9 130.2 930 0 9 -- Chart
1955 12 16 00 17.8 131.1 925 0 9 -- Chart
1955 12 16 06 19.0 132.4 930 0 9 -- Chart
1955 12 16 12 20.0 134.2 930 0 9 -- Chart
1955 12 16 18 21.1 136.2 940 0 9 -- Chart
1955 12 17 00 22.3 139.3 950 0 9 -- Chart
1955 12 17 06 23.2 141.9 975 0 9 -- Chart
1955 12 17 12 24.9 145.3 990 0 9 -- Chart
1955 12 17 18 29.1 153.9 990 0 9 -- Chart
1955 12 18 00 35.0 158.0 984 0 9 -- Chart
Japan Meteorological Agency Best Track Data | Correction Date : 1989-06-01
< Typhoon 195527 1955 Season Typhoon 195601 >

Help